sensor_id;sensor_type;location;lat;lon;timestamp;temperature;humidity
1405;DHT22;697;51.114;6.542;2022-07-26T00:02:11;21.10;61.10
1405;DHT22;697;51.114;6.542;2022-07-26T00:04:38;21.10;62.10
1405;DHT22;697;51.114;6.542;2022-07-26T00:07:04;21.00;61.60
1405;DHT22;697;51.114;6.542;2022-07-26T00:09:31;21.00;61.90
1405;DHT22;697;51.114;6.542;2022-07-26T00:11:58;21.00;61.90
1405;DHT22;697;51.114;6.542;2022-07-26T00:14:25;21.00;62.00
1405;DHT22;697;51.114;6.542;2022-07-26T00:16:53;20.90;62.30
1405;DHT22;697;51.114;6.542;2022-07-26T00:19:20;20.90;63.00
1405;DHT22;697;51.114;6.542;2022-07-26T00:21:47;20.90;63.60
1405;DHT22;697;51.114;6.542;2022-07-26T00:24:33;20.80;63.60
1405;DHT22;697;51.114;6.542;2022-07-26T00:27:00;20.80;64.00
1405;DHT22;697;51.114;6.542;2022-07-26T00:29:27;20.70;64.50
1405;DHT22;697;51.114;6.542;2022-07-26T00:31:55;20.70;64.60
1405;DHT22;697;51.114;6.542;2022-07-26T00:34:22;20.70;65.10
1405;DHT22;697;51.114;6.542;2022-07-26T00:36:49;20.70;65.60
1405;DHT22;697;51.114;6.542;2022-07-26T00:39:15;20.60;65.60
1405;DHT22;697;51.114;6.542;2022-07-26T00:41:42;20.60;65.90
1405;DHT22;697;51.114;6.542;2022-07-26T00:44:09;20.60;66.30
1405;DHT22;697;51.114;6.542;2022-07-26T00:46:36;20.60;66.50
1405;DHT22;697;51.114;6.542;2022-07-26T00:49:04;20.60;66.40
1405;DHT22;697;51.114;6.542;2022-07-26T00:51:31;20.60;66.80
1405;DHT22;697;51.114;6.542;2022-07-26T00:53:58;20.60;66.70
1405;DHT22;697;51.114;6.542;2022-07-26T00:56:25;20.60;66.80
1405;DHT22;697;51.114;6.542;2022-07-26T00:58:52;20.60;67.00
1405;DHT22;697;51.114;6.542;2022-07-26T01:01:19;20.60;67.20
1405;DHT22;697;51.114;6.542;2022-07-26T01:03:46;20.50;68.50
1405;DHT22;697;51.114;6.542;2022-07-26T01:06:17;20.60;68.10
1405;DHT22;697;51.114;6.542;2022-07-26T01:08:44;20.50;67.80
1405;DHT22;697;51.114;6.542;2022-07-26T01:11:11;20.50;67.70
1405;DHT22;697;51.114;6.542;2022-07-26T01:13:45;20.50;67.90
1405;DHT22;697;51.114;6.542;2022-07-26T01:16:11;20.50;67.80
1405;DHT22;697;51.114;6.542;2022-07-26T01:18:38;20.50;68.10
1405;DHT22;697;51.114;6.542;2022-07-26T01:21:07;20.40;68.10
1405;DHT22;697;51.114;6.542;2022-07-26T01:23:36;20.40;68.60
1405;DHT22;697;51.114;6.542;2022-07-26T01:26:04;20.40;68.60
1405;DHT22;697;51.114;6.542;2022-07-26T01:28:34;20.30;69.10
1405;DHT22;697;51.114;6.542;2022-07-26T01:31:01;20.20;69.40
1405;DHT22;697;51.114;6.542;2022-07-26T01:33:28;20.20;69.80
1405;DHT22;697;51.114;6.542;2022-07-26T01:35:55;20.20;69.80
1405;DHT22;697;51.114;6.542;2022-07-26T01:38:21;20.10;70.60
1405;DHT22;697;51.114;6.542;2022-07-26T01:40:50;20.10;70.80
1405;DHT22;697;51.114;6.542;2022-07-26T01:43:16;20.10;71.40
1405;DHT22;697;51.114;6.542;2022-07-26T01:45:43;20.10;71.90
1405;DHT22;697;51.114;6.542;2022-07-26T01:48:10;20.10;71.80
1405;DHT22;697;51.114;6.542;2022-07-26T01:50:37;20.00;71.90
1405;DHT22;697;51.114;6.542;2022-07-26T01:53:04;20.00;72.50
1405;DHT22;697;51.114;6.542;2022-07-26T01:55:31;19.90;73.00
1405;DHT22;697;51.114;6.542;2022-07-26T01:57:59;19.90;74.50
1405;DHT22;697;51.114;6.542;2022-07-26T02:00:26;19.80;73.90
1405;DHT22;697;51.114;6.542;2022-07-26T02:02:53;19.80;74.50
1405;DHT22;697;51.114;6.542;2022-07-26T02:05:20;19.80;74.80
1405;DHT22;697;51.114;6.542;2022-07-26T02:07:47;19.80;75.00
1405;DHT22;697;51.114;6.542;2022-07-26T02:10:15;19.80;75.40
1405;DHT22;697;51.114;6.542;2022-07-26T02:12:42;19.70;75.40
1405;DHT22;697;51.114;6.542;2022-07-26T02:15:11;19.70;75.70
1405;DHT22;697;51.114;6.542;2022-07-26T02:17:38;19.80;76.10
1405;DHT22;697;51.114;6.542;2022-07-26T02:20:06;19.80;76.00
1405;DHT22;697;51.114;6.542;2022-07-26T02:22:33;19.80;76.00
1405;DHT22;697;51.114;6.542;2022-07-26T02:25:00;19.70;76.20
1405;DHT22;697;51.114;6.542;2022-07-26T02:27:27;19.70;76.50
1405;DHT22;697;51.114;6.542;2022-07-26T02:29:54;19.70;77.20
1405;DHT22;697;51.114;6.542;2022-07-26T02:32:22;19.70;77.30
1405;DHT22;697;51.114;6.542;2022-07-26T02:34:49;19.70;77.30
1405;DHT22;697;51.114;6.542;2022-07-26T02:37:15;19.60;77.60
1405;DHT22;697;51.114;6.542;2022-07-26T02:39:42;19.70;77.90
1405;DHT22;697;51.114;6.542;2022-07-26T02:42:09;19.60;78.00
1405;DHT22;697;51.114;6.542;2022-07-26T02:44:35;19.60;78.70
1405;DHT22;697;51.114;6.542;2022-07-26T02:47:02;19.50;79.00
1405;DHT22;697;51.114;6.542;2022-07-26T02:49:30;19.50;79.30
1405;DHT22;697;51.114;6.542;2022-07-26T02:51:57;19.50;79.40
1405;DHT22;697;51.114;6.542;2022-07-26T02:54:24;19.50;79.70
1405;DHT22;697;51.114;6.542;2022-07-26T02:56:51;19.50;80.00
1405;DHT22;697;51.114;6.542;2022-07-26T02:59:17;19.50;80.20
1405;DHT22;697;51.114;6.542;2022-07-26T03:01:44;19.50;80.50
1405;DHT22;697;51.114;6.542;2022-07-26T03:04:11;19.40;81.00
1405;DHT22;697;51.114;6.542;2022-07-26T03:06:39;19.40;80.70
1405;DHT22;697;51.114;6.542;2022-07-26T03:09:06;19.40;81.20
1405;DHT22;697;51.114;6.542;2022-07-26T03:11:32;19.40;81.20
1405;DHT22;697;51.114;6.542;2022-07-26T03:14:14;19.40;81.50
1405;DHT22;697;51.114;6.542;2022-07-26T03:16:41;19.40;81.90
1405;DHT22;697;51.114;6.542;2022-07-26T03:19:08;19.40;82.10
1405;DHT22;697;51.114;6.542;2022-07-26T03:21:34;19.30;82.20
1405;DHT22;697;51.114;6.542;2022-07-26T03:24:03;19.30;82.60
1405;DHT22;697;51.114;6.542;2022-07-26T03:26:30;19.30;82.90
1405;DHT22;697;51.114;6.542;2022-07-26T03:28:56;19.30;83.00
1405;DHT22;697;51.114;6.542;2022-07-26T03:31:23;19.30;83.10
1405;DHT22;697;51.114;6.542;2022-07-26T03:33:50;19.30;83.50
1405;DHT22;697;51.114;6.542;2022-07-26T03:36:17;19.30;83.90
1405;DHT22;697;51.114;6.542;2022-07-26T03:38:43;19.30;84.40
1405;DHT22;697;51.114;6.542;2022-07-26T03:41:11;19.20;84.60
1405;DHT22;697;51.114;6.542;2022-07-26T03:43:38;19.30;84.40
1405;DHT22;697;51.114;6.542;2022-07-26T03:46:05;19.30;84.70
1405;DHT22;697;51.114;6.542;2022-07-26T03:48:32;19.30;85.10
1405;DHT22;697;51.114;6.542;2022-07-26T03:50:59;19.30;84.50
1405;DHT22;697;51.114;6.542;2022-07-26T03:53:25;19.30;84.80
1405;DHT22;697;51.114;6.542;2022-07-26T03:55:52;19.30;84.80
1405;DHT22;697;51.114;6.542;2022-07-26T03:58:38;19.30;85.00
1405;DHT22;697;51.114;6.542;2022-07-26T04:01:04;19.30;85.60
1405;DHT22;697;51.114;6.542;2022-07-26T04:03:31;19.40;85.60
1405;DHT22;697;51.114;6.542;2022-07-26T04:05:58;19.40;85.50
1405;DHT22;697;51.114;6.542;2022-07-26T04:08:25;19.50;86.20
1405;DHT22;697;51.114;6.542;2022-07-26T04:10:51;19.50;85.80
1405;DHT22;697;51.114;6.542;2022-07-26T04:13:19;19.50;86.00
1405;DHT22;697;51.114;6.542;2022-07-26T04:15:49;19.50;85.20
1405;DHT22;697;51.114;6.542;2022-07-26T04:18:16;19.50;85.70
1405;DHT22;697;51.114;6.542;2022-07-26T04:20:43;19.50;86.10
1405;DHT22;697;51.114;6.542;2022-07-26T04:23:10;19.40;86.60
1405;DHT22;697;51.114;6.542;2022-07-26T04:25:37;19.40;87.00
1405;DHT22;697;51.114;6.542;2022-07-26T04:28:04;19.40;87.00
1405;DHT22;697;51.114;6.542;2022-07-26T04:30:31;19.40;87.60
1405;DHT22;697;51.114;6.542;2022-07-26T04:32:59;19.40;87.90
1405;DHT22;697;51.114;6.542;2022-07-26T04:35:26;19.40;88.00
1405;DHT22;697;51.114;6.542;2022-07-26T04:37:52;19.40;88.10
1405;DHT22;697;51.114;6.542;2022-07-26T04:40:20;19.40;88.50
1405;DHT22;697;51.114;6.542;2022-07-26T04:42:48;19.40;89.00
1405;DHT22;697;51.114;6.542;2022-07-26T04:45:15;19.40;89.00
1405;DHT22;697;51.114;6.542;2022-07-26T04:47:45;19.50;88.60
1405;DHT22;697;51.114;6.542;2022-07-26T04:50:16;19.50;88.80
1405;DHT22;697;51.114;6.542;2022-07-26T04:52:43;19.50;89.20
1405;DHT22;697;51.114;6.542;2022-07-26T04:55:10;19.60;89.10
1405;DHT22;697;51.114;6.542;2022-07-26T04:57:37;19.60;88.80
1405;DHT22;697;51.114;6.542;2022-07-26T05:00:05;19.60;89.30
1405;DHT22;697;51.114;6.542;2022-07-26T05:02:33;19.60;88.60
1405;DHT22;697;51.114;6.542;2022-07-26T05:05:00;19.70;89.60
1405;DHT22;697;51.114;6.542;2022-07-26T05:07:38;19.70;89.50
1405;DHT22;697;51.114;6.542;2022-07-26T05:10:06;19.70;90.00
1405;DHT22;697;51.114;6.542;2022-07-26T05:12:33;19.70;89.40
1405;DHT22;697;51.114;6.542;2022-07-26T05:14:59;19.70;89.10
1405;DHT22;697;51.114;6.542;2022-07-26T05:17:26;19.70;89.20
1405;DHT22;697;51.114;6.542;2022-07-26T05:19:53;19.70;90.00
1405;DHT22;697;51.114;6.542;2022-07-26T05:22:20;19.70;90.10
1405;DHT22;697;51.114;6.542;2022-07-26T05:24:48;19.80;89.60
1405;DHT22;697;51.114;6.542;2022-07-26T05:27:15;19.80;89.60
1405;DHT22;697;51.114;6.542;2022-07-26T05:29:43;19.80;89.50
1405;DHT22;697;51.114;6.542;2022-07-26T05:32:10;19.80;89.60
1405;DHT22;697;51.114;6.542;2022-07-26T05:34:36;19.90;90.00
1405;DHT22;697;51.114;6.542;2022-07-26T05:37:03;19.90;89.50
1405;DHT22;697;51.114;6.542;2022-07-26T05:39:30;20.00;89.50
1405;DHT22;697;51.114;6.542;2022-07-26T05:41:58;20.00;88.80
1405;DHT22;697;51.114;6.542;2022-07-26T05:44:25;20.10;89.20
1405;DHT22;697;51.114;6.542;2022-07-26T05:46:52;20.10;89.20
1405;DHT22;697;51.114;6.542;2022-07-26T05:49:18;20.10;89.40
1405;DHT22;697;51.114;6.542;2022-07-26T05:51:45;20.10;88.90
1405;DHT22;697;51.114;6.542;2022-07-26T05:54:12;20.20;88.80
1405;DHT22;697;51.114;6.542;2022-07-26T05:56:39;20.20;89.50
1405;DHT22;697;51.114;6.542;2022-07-26T05:59:07;20.20;89.20
1405;DHT22;697;51.114;6.542;2022-07-26T06:01:33;20.20;89.30
1405;DHT22;697;51.114;6.542;2022-07-26T06:04:00;20.30;88.70
1405;DHT22;697;51.114;6.542;2022-07-26T06:06:27;20.30;88.40
1405;DHT22;697;51.114;6.542;2022-07-26T06:08:54;20.30;88.40
1405;DHT22;697;51.114;6.542;2022-07-26T06:11:21;20.30;89.60
1405;DHT22;697;51.114;6.542;2022-07-26T06:13:48;20.30;88.90
1405;DHT22;697;51.114;6.542;2022-07-26T06:16:16;20.30;89.20
1405;DHT22;697;51.114;6.542;2022-07-26T06:18:43;20.20;90.00
1405;DHT22;697;51.114;6.542;2022-07-26T06:21:10;20.20;90.00
1405;DHT22;697;51.114;6.542;2022-07-26T06:23:37;20.10;90.20
1405;DHT22;697;51.114;6.542;2022-07-26T06:26:04;20.10;90.40
1405;DHT22;697;51.114;6.542;2022-07-26T06:28:31;20.10;90.70
1405;DHT22;697;51.114;6.542;2022-07-26T06:30:58;20.00;90.90
1405;DHT22;697;51.114;6.542;2022-07-26T06:33:26;20.00;91.00
1405;DHT22;697;51.114;6.542;2022-07-26T06:35:53;20.10;91.00
1405;DHT22;697;51.114;6.542;2022-07-26T06:38:20;20.00;91.10
1405;DHT22;697;51.114;6.542;2022-07-26T06:40:47;20.10;90.80
1405;DHT22;697;51.114;6.542;2022-07-26T06:43:13;20.20;91.00
1405;DHT22;697;51.114;6.542;2022-07-26T06:45:40;20.20;91.20
1405;DHT22;697;51.114;6.542;2022-07-26T06:48:07;20.20;91.10
1405;DHT22;697;51.114;6.542;2022-07-26T06:50:35;20.30;91.30
1405;DHT22;697;51.114;6.542;2022-07-26T06:53:01;20.30;91.20
1405;DHT22;697;51.114;6.542;2022-07-26T06:55:28;20.30;91.20
1405;DHT22;697;51.114;6.542;2022-07-26T06:58:09;20.40;91.20
1405;DHT22;697;51.114;6.542;2022-07-26T07:00:35;20.40;90.90
1405;DHT22;697;51.114;6.542;2022-07-26T07:03:02;20.40;90.90
1405;DHT22;697;51.114;6.542;2022-07-26T07:05:29;20.40;91.10
1405;DHT22;697;51.114;6.542;2022-07-26T07:07:57;20.40;91.00
1405;DHT22;697;51.114;6.542;2022-07-26T07:10:24;20.50;90.80
1405;DHT22;697;51.114;6.542;2022-07-26T07:12:50;20.50;90.80
1405;DHT22;697;51.114;6.542;2022-07-26T07:15:17;20.50;91.00
1405;DHT22;697;51.114;6.542;2022-07-26T07:17:44;20.60;91.10
1405;DHT22;697;51.114;6.542;2022-07-26T07:20:11;20.70;90.50
1405;DHT22;697;51.114;6.542;2022-07-26T07:22:38;20.80;90.20
1405;DHT22;697;51.114;6.542;2022-07-26T07:25:06;20.90;90.20
1405;DHT22;697;51.114;6.542;2022-07-26T07:27:33;21.00;89.90
1405;DHT22;697;51.114;6.542;2022-07-26T07:30:00;21.00;90.30
1405;DHT22;697;51.114;6.542;2022-07-26T07:32:27;21.10;89.80
1405;DHT22;697;51.114;6.542;2022-07-26T07:34:53;21.20;89.60
1405;DHT22;697;51.114;6.542;2022-07-26T07:37:20;21.30;88.90
1405;DHT22;697;51.114;6.542;2022-07-26T07:39:47;21.30;88.80
1405;DHT22;697;51.114;6.542;2022-07-26T07:42:15;21.30;89.70
1405;DHT22;697;51.114;6.542;2022-07-26T07:44:42;21.40;88.70
1405;DHT22;697;51.114;6.542;2022-07-26T07:47:09;21.50;89.30
1405;DHT22;697;51.114;6.542;2022-07-26T07:49:36;21.50;88.00
1405;DHT22;697;51.114;6.542;2022-07-26T07:52:03;21.70;88.30
1405;DHT22;697;51.114;6.542;2022-07-26T07:54:30;21.70;87.20
1405;DHT22;697;51.114;6.542;2022-07-26T07:56:57;21.70;86.40
1405;DHT22;697;51.114;6.542;2022-07-26T07:59:25;21.70;86.10
1405;DHT22;697;51.114;6.542;2022-07-26T08:01:53;21.70;86.10
1405;DHT22;697;51.114;6.542;2022-07-26T08:04:20;21.90;87.20
1405;DHT22;697;51.114;6.542;2022-07-26T08:06:46;22.10;86.40
1405;DHT22;697;51.114;6.542;2022-07-26T08:09:13;22.30;84.90
1405;DHT22;697;51.114;6.542;2022-07-26T08:11:40;22.50;83.10
1405;DHT22;697;51.114;6.542;2022-07-26T08:14:07;22.70;82.90
1405;DHT22;697;51.114;6.542;2022-07-26T08:16:35;22.90;83.00
1405;DHT22;697;51.114;6.542;2022-07-26T08:19:02;23.20;78.80
1405;DHT22;697;51.114;6.542;2022-07-26T08:21:29;23.30;78.40
1405;DHT22;697;51.114;6.542;2022-07-26T08:23:57;23.50;78.90
1405;DHT22;697;51.114;6.542;2022-07-26T08:26:23;23.60;77.40
1405;DHT22;697;51.114;6.542;2022-07-26T08:28:50;23.80;76.90
1405;DHT22;697;51.114;6.542;2022-07-26T08:31:17;24.00;78.70
1405;DHT22;697;51.114;6.542;2022-07-26T08:33:47;24.10;74.80
1405;DHT22;697;51.114;6.542;2022-07-26T08:36:14;24.00;73.60
1405;DHT22;697;51.114;6.542;2022-07-26T08:38:41;24.00;74.30
1405;DHT22;697;51.114;6.542;2022-07-26T08:41:08;24.00;72.90
1405;DHT22;697;51.114;6.542;2022-07-26T08:43:35;24.00;73.60
1405;DHT22;697;51.114;6.542;2022-07-26T08:46:02;24.10;74.80
1405;DHT22;697;51.114;6.542;2022-07-26T08:48:28;24.20;73.10
1405;DHT22;697;51.114;6.542;2022-07-26T08:50:57;24.20;70.60
1405;DHT22;697;51.114;6.542;2022-07-26T08:53:28;24.20;70.30
1405;DHT22;697;51.114;6.542;2022-07-26T08:55:55;24.20;71.70
1405;DHT22;697;51.114;6.542;2022-07-26T08:58:22;24.30;71.60
1405;DHT22;697;51.114;6.542;2022-07-26T09:01:02;24.40;71.20
1405;DHT22;697;51.114;6.542;2022-07-26T09:03:29;24.50;70.10
1405;DHT22;697;51.114;6.542;2022-07-26T09:06:10;24.70;69.10
1405;DHT22;697;51.114;6.542;2022-07-26T09:08:37;24.80;69.50
1405;DHT22;697;51.114;6.542;2022-07-26T09:11:25;25.00;67.80
1405;DHT22;697;51.114;6.542;2022-07-26T09:13:55;25.10;66.90
1405;DHT22;697;51.114;6.542;2022-07-26T09:16:22;25.10;65.00
1405;DHT22;697;51.114;6.542;2022-07-26T09:18:49;25.20;65.30
1405;DHT22;697;51.114;6.542;2022-07-26T09:21:29;25.20;64.70
1405;DHT22;697;51.114;6.542;2022-07-26T09:23:56;25.20;65.80
1405;DHT22;697;51.114;6.542;2022-07-26T09:26:23;25.20;64.60
1405;DHT22;697;51.114;6.542;2022-07-26T09:29:07;25.30;66.50
1405;DHT22;697;51.114;6.542;2022-07-26T09:31:34;25.30;64.40
1405;DHT22;697;51.114;6.542;2022-07-26T09:34:02;25.40;61.90
1405;DHT22;697;51.114;6.542;2022-07-26T09:36:30;25.60;62.80
1405;DHT22;697;51.114;6.542;2022-07-26T09:38:59;25.80;61.10
1405;DHT22;697;51.114;6.542;2022-07-26T09:41:28;26.10;61.30
1405;DHT22;697;51.114;6.542;2022-07-26T09:43:56;26.30;60.20
1405;DHT22;697;51.114;6.542;2022-07-26T09:46:25;26.40;58.60
1405;DHT22;697;51.114;6.542;2022-07-26T09:48:52;26.40;57.90
1405;DHT22;697;51.114;6.542;2022-07-26T09:51:38;26.10;57.90
1405;DHT22;697;51.114;6.542;2022-07-26T09:54:06;26.00;59.40
1405;DHT22;697;51.114;6.542;2022-07-26T09:56:43;25.90;60.60
1405;DHT22;697;51.114;6.542;2022-07-26T09:59:13;26.10;60.50
1405;DHT22;697;51.114;6.542;2022-07-26T10:01:40;26.30;58.70
1405;DHT22;697;51.114;6.542;2022-07-26T10:04:07;26.60;57.10
1405;DHT22;697;51.114;6.542;2022-07-26T10:06:33;26.90;57.30
1405;DHT22;697;51.114;6.542;2022-07-26T10:09:02;27.10;56.10
1405;DHT22;697;51.114;6.542;2022-07-26T10:11:36;26.90;53.70
1405;DHT22;697;51.114;6.542;2022-07-26T10:14:39;26.80;54.30
1405;DHT22;697;51.114;6.542;2022-07-26T10:22:56;26.00;56.60
1405;DHT22;697;51.114;6.542;2022-07-26T10:25:46;25.90;56.30
1405;DHT22;697;51.114;6.542;2022-07-26T10:28:24;25.80;56.40
1405;DHT22;697;51.114;6.542;2022-07-26T10:30:52;25.70;56.80
1405;DHT22;697;51.114;6.542;2022-07-26T10:33:22;25.60;56.50
1405;DHT22;697;51.114;6.542;2022-07-26T10:35:50;25.70;57.10
1405;DHT22;697;51.114;6.542;2022-07-26T10:38:22;25.80;58.00
1405;DHT22;697;51.114;6.542;2022-07-26T10:40:57;26.10;54.50
1405;DHT22;697;51.114;6.542;2022-07-26T10:43:26;26.60;55.60
1405;DHT22;697;51.114;6.542;2022-07-26T10:46:22;27.50;53.30
1405;DHT22;697;51.114;6.542;2022-07-26T10:48:56;28.60;49.50
1405;DHT22;697;51.114;6.542;2022-07-26T10:51:24;29.40;45.80
1405;DHT22;697;51.114;6.542;2022-07-26T10:53:59;29.70;44.50
1405;DHT22;697;51.114;6.542;2022-07-26T10:56:27;29.90;43.90
1405;DHT22;697;51.114;6.542;2022-07-26T10:58:55;29.40;44.40
1405;DHT22;697;51.114;6.542;2022-07-26T11:01:21;28.50;45.80
1405;DHT22;697;51.114;6.542;2022-07-26T11:03:57;28.00;48.50
1405;DHT22;697;51.114;6.542;2022-07-26T11:06:27;28.00;48.60
1405;DHT22;697;51.114;6.542;2022-07-26T11:08:54;28.00;50.20
1405;DHT22;697;51.114;6.542;2022-07-26T11:11:30;27.60;49.20
1405;DHT22;697;51.114;6.542;2022-07-26T11:14:07;27.10;50.60
1405;DHT22;697;51.114;6.542;2022-07-26T11:16:38;26.70;51.70
1405;DHT22;697;51.114;6.542;2022-07-26T11:19:12;26.30;52.80
1405;DHT22;697;51.114;6.542;2022-07-26T11:21:40;25.90;53.10
1405;DHT22;697;51.114;6.542;2022-07-26T11:24:07;25.50;54.00
1405;DHT22;697;51.114;6.542;2022-07-26T11:26:41;25.20;54.80
1405;DHT22;697;51.114;6.542;2022-07-26T11:29:08;25.00;55.60
1405;DHT22;697;51.114;6.542;2022-07-26T11:31:37;24.90;56.30
1405;DHT22;697;51.114;6.542;2022-07-26T11:34:05;24.90;57.40
1405;DHT22;697;51.114;6.542;2022-07-26T11:36:37;25.00;58.10
1405;DHT22;697;51.114;6.542;2022-07-26T11:39:06;25.10;57.50
1405;DHT22;697;51.114;6.542;2022-07-26T11:41:34;25.30;57.70
1405;DHT22;697;51.114;6.542;2022-07-26T11:44:04;26.00;58.00
1405;DHT22;697;51.114;6.542;2022-07-26T11:46:37;27.10;53.80
1405;DHT22;697;51.114;6.542;2022-07-26T11:49:11;28.60;52.00
1405;DHT22;697;51.114;6.542;2022-07-26T11:51:38;29.50;47.80
1405;DHT22;697;51.114;6.542;2022-07-26T11:54:05;29.40;45.80
1405;DHT22;697;51.114;6.542;2022-07-26T11:56:32;29.10;46.50
1405;DHT22;697;51.114;6.542;2022-07-26T11:58:59;28.50;47.10
1405;DHT22;697;51.114;6.542;2022-07-26T12:01:27;27.90;48.60
1405;DHT22;697;51.114;6.542;2022-07-26T12:03:54;27.40;49.90
1405;DHT22;697;51.114;6.542;2022-07-26T12:06:23;26.90;51.50
1405;DHT22;697;51.114;6.542;2022-07-26T12:08:52;26.50;52.20
1405;DHT22;697;51.114;6.542;2022-07-26T12:11:20;25.90;53.40
1405;DHT22;697;51.114;6.542;2022-07-26T12:13:53;25.60;55.00
1405;DHT22;697;51.114;6.542;2022-07-26T12:16:38;25.40;55.90
1405;DHT22;697;51.114;6.542;2022-07-26T12:19:07;25.00;56.60
1405;DHT22;697;51.114;6.542;2022-07-26T12:21:39;24.70;58.30
1405;DHT22;697;51.114;6.542;2022-07-26T12:24:08;24.40;59.40
1405;DHT22;697;51.114;6.542;2022-07-26T12:26:35;24.30;60.20
1405;DHT22;697;51.114;6.542;2022-07-26T12:29:03;24.30;61.40
1405;DHT22;697;51.114;6.542;2022-07-26T12:31:46;24.40;62.30
1405;DHT22;697;51.114;6.542;2022-07-26T12:34:19;24.50;61.40
1405;DHT22;697;51.114;6.542;2022-07-26T12:36:45;24.70;61.40
1405;DHT22;697;51.114;6.542;2022-07-26T12:39:18;24.90;60.80
1405;DHT22;697;51.114;6.542;2022-07-26T12:41:46;25.10;58.70
1405;DHT22;697;51.114;6.542;2022-07-26T12:44:15;25.40;57.50
1405;DHT22;697;51.114;6.542;2022-07-26T12:46:43;26.20;56.30
1405;DHT22;697;51.114;6.542;2022-07-26T12:49:11;26.90;54.30
1405;DHT22;697;51.114;6.542;2022-07-26T12:51:38;27.70;52.40
1405;DHT22;697;51.114;6.542;2022-07-26T12:54:05;29.40;48.80
1405;DHT22;697;51.114;6.542;2022-07-26T12:56:32;30.70;44.60
1405;DHT22;697;51.114;6.542;2022-07-26T12:58:59;31.80;42.30
1405;DHT22;697;51.114;6.542;2022-07-26T13:01:26;32.60;39.30
1405;DHT22;697;51.114;6.542;2022-07-26T13:03:53;33.40;36.90
1405;DHT22;697;51.114;6.542;2022-07-26T13:06:22;33.70;36.60
1405;DHT22;697;51.114;6.542;2022-07-26T13:08:48;33.60;35.60
1405;DHT22;697;51.114;6.542;2022-07-26T13:11:15;33.00;36.80
1405;DHT22;697;51.114;6.542;2022-07-26T13:13:42;32.00;38.60
1405;DHT22;697;51.114;6.542;2022-07-26T13:16:09;31.10;40.80
1405;DHT22;697;51.114;6.542;2022-07-26T13:18:36;30.30;41.50
1405;DHT22;697;51.114;6.542;2022-07-26T13:21:02;29.60;43.70
1405;DHT22;697;51.114;6.542;2022-07-26T13:23:30;28.90;44.80
1405;DHT22;697;51.114;6.542;2022-07-26T13:25:57;28.30;46.80
1405;DHT22;697;51.114;6.542;2022-07-26T13:28:24;27.70;47.60
1405;DHT22;697;51.114;6.542;2022-07-26T13:30:51;27.20;47.00
1405;DHT22;697;51.114;6.542;2022-07-26T13:33:17;26.70;48.20
1405;DHT22;697;51.114;6.542;2022-07-26T13:35:44;26.30;49.40
1405;DHT22;697;51.114;6.542;2022-07-26T13:38:11;26.20;49.90
1405;DHT22;697;51.114;6.542;2022-07-26T13:40:39;26.20;51.30
1405;DHT22;697;51.114;6.542;2022-07-26T13:43:06;26.30;51.10
1405;DHT22;697;51.114;6.542;2022-07-26T13:45:32;26.50;51.50
1405;DHT22;697;51.114;6.542;2022-07-26T13:47:59;27.00;51.20
1405;DHT22;697;51.114;6.542;2022-07-26T13:50:26;27.70;49.50
1405;DHT22;697;51.114;6.542;2022-07-26T13:52:53;28.20;48.20
1405;DHT22;697;51.114;6.542;2022-07-26T13:55:20;28.70;48.20
1405;DHT22;697;51.114;6.542;2022-07-26T13:57:48;28.90;48.30
1405;DHT22;697;51.114;6.542;2022-07-26T14:00:15;28.90;47.40
1405;DHT22;697;51.114;6.542;2022-07-26T14:02:42;28.70;47.00
1405;DHT22;697;51.114;6.542;2022-07-26T14:05:09;28.20;46.40
1405;DHT22;697;51.114;6.542;2022-07-26T14:07:35;27.80;47.50
1405;DHT22;697;51.114;6.542;2022-07-26T14:10:03;27.50;48.10
1405;DHT22;697;51.114;6.542;2022-07-26T14:12:29;27.30;48.80
1405;DHT22;697;51.114;6.542;2022-07-26T14:14:57;27.40;49.30
1405;DHT22;697;51.114;6.542;2022-07-26T14:17:24;28.10;49.70
1405;DHT22;697;51.114;6.542;2022-07-26T14:19:51;29.50;47.90
1405;DHT22;697;51.114;6.542;2022-07-26T14:22:18;30.70;43.40
1405;DHT22;697;51.114;6.542;2022-07-26T14:24:44;31.00;42.40
1405;DHT22;697;51.114;6.542;2022-07-26T14:27:11;30.80;41.50
1405;DHT22;697;51.114;6.542;2022-07-26T14:29:38;30.50;42.70
1405;DHT22;697;51.114;6.542;2022-07-26T14:32:06;30.50;42.50
1405;DHT22;697;51.114;6.542;2022-07-26T14:34:33;30.40;43.60
1405;DHT22;697;51.114;6.542;2022-07-26T14:37:00;30.10;42.10
1405;DHT22;697;51.114;6.542;2022-07-26T14:39:26;29.70;43.40
1405;DHT22;697;51.114;6.542;2022-07-26T14:41:53;30.00;43.90
1405;DHT22;697;51.114;6.542;2022-07-26T14:44:20;30.20;42.50
1405;DHT22;697;51.114;6.542;2022-07-26T14:46:47;30.20;43.20
1405;DHT22;697;51.114;6.542;2022-07-26T14:49:15;30.60;42.50
1405;DHT22;697;51.114;6.542;2022-07-26T14:51:42;31.50;41.90
1405;DHT22;697;51.114;6.542;2022-07-26T14:54:08;32.30;39.50
1405;DHT22;697;51.114;6.542;2022-07-26T14:56:35;32.50;37.60
1405;DHT22;697;51.114;6.542;2022-07-26T14:59:02;32.30;37.80
1405;DHT22;697;51.114;6.542;2022-07-26T15:01:28;32.20;38.10
1405;DHT22;697;51.114;6.542;2022-07-26T15:03:55;32.60;38.20
1405;DHT22;697;51.114;6.542;2022-07-26T15:06:23;33.30;37.30
1405;DHT22;697;51.114;6.542;2022-07-26T15:08:50;33.80;34.80
1405;DHT22;697;51.114;6.542;2022-07-26T15:11:17;34.00;34.70
1405;DHT22;697;51.114;6.542;2022-07-26T15:13:44;34.10;34.00
1405;DHT22;697;51.114;6.542;2022-07-26T15:16:11;33.70;34.20
1405;DHT22;697;51.114;6.542;2022-07-26T15:18:37;33.40;35.40
1405;DHT22;697;51.114;6.542;2022-07-26T15:21:04;32.90;35.90
1405;DHT22;697;51.114;6.542;2022-07-26T15:23:33;32.10;37.10
1405;DHT22;697;51.114;6.542;2022-07-26T15:26:00;31.50;38.30
1405;DHT22;697;51.114;6.542;2022-07-26T15:28:27;30.90;39.60
1405;DHT22;697;51.114;6.542;2022-07-26T15:30:54;30.60;41.00
1405;DHT22;697;51.114;6.542;2022-07-26T15:33:20;30.50;41.20
1405;DHT22;697;51.114;6.542;2022-07-26T15:35:47;30.60;41.20
1405;DHT22;697;51.114;6.542;2022-07-26T15:38:15;30.50;40.30
1405;DHT22;697;51.114;6.542;2022-07-26T15:40:43;30.70;41.20
1405;DHT22;697;51.114;6.542;2022-07-26T15:43:10;31.00;40.40
1405;DHT22;697;51.114;6.542;2022-07-26T15:45:36;31.10;40.00
1405;DHT22;697;51.114;6.542;2022-07-26T15:48:05;30.90;39.80
1405;DHT22;697;51.114;6.542;2022-07-26T15:50:32;30.70;40.00
1405;DHT22;697;51.114;6.542;2022-07-26T15:52:59;30.40;40.40
1405;DHT22;697;51.114;6.542;2022-07-26T15:55:26;30.10;41.20
1405;DHT22;697;51.114;6.542;2022-07-26T15:57:54;30.20;41.70
1405;DHT22;697;51.114;6.542;2022-07-26T16:00:21;30.20;41.30
1405;DHT22;697;51.114;6.542;2022-07-26T16:02:47;30.10;41.00
1405;DHT22;697;51.114;6.542;2022-07-26T16:05:14;30.10;41.10
1405;DHT22;697;51.114;6.542;2022-07-26T16:07:43;30.00;40.80
1405;DHT22;697;51.114;6.542;2022-07-26T16:10:11;29.70;41.00
1405;DHT22;697;51.114;6.542;2022-07-26T16:12:39;29.40;41.60
1405;DHT22;697;51.114;6.542;2022-07-26T16:15:10;29.10;42.70
1405;DHT22;697;51.114;6.542;2022-07-26T16:17:37;28.90;43.10
1405;DHT22;697;51.114;6.542;2022-07-26T16:20:05;28.80;43.40
1405;DHT22;697;51.114;6.542;2022-07-26T16:22:32;28.60;43.90
1405;DHT22;697;51.114;6.542;2022-07-26T16:24:59;28.30;44.40
1405;DHT22;697;51.114;6.542;2022-07-26T16:27:25;28.10;44.60
1405;DHT22;697;51.114;6.542;2022-07-26T16:29:52;27.90;44.80